Time;durP1;ratioP1;P1;durP2;ratioP2;P2;SDS_P1;SDS_P2;PMS_P1;PMS_P2;Temp;Humidity;BMP_temperature;BMP_pressure;BME280_temperature;BME280_humidity;BME280_pressure;Samples;Min_cycle;Max_cycle;Signal;HPM_P1;HPM_P2
2021/08/16 00:01:56;;;;;;;;;;;;;;;27.46;43.66;96969.13;5088729;28;1088;-56
2021/08/16 00:04:21;;;;;;;;;;;;;;;27.46;43.73;96974.44;5088787;28;1250;-55
2021/08/16 00:06:46;;;;;;;;;;;;;;;27.55;43.46;96968.25;5088585;28;1633;-55
2021/08/16 00:09:12;;;;;;;;;;;;;;;27.38;44.01;96953.16;5086046;28;1656;-55
2021/08/16 00:11:37;;;;;;;;;;;;;;;27.46;43.80;96963.00;5089886;28;1180;-57
2021/08/16 00:14:02;;;;;;;;;;;;;;;27.38;43.99;96965.56;5087319;28;1933;-56
2021/08/16 00:16:27;;;;;;;;;;;;;;;27.50;43.72;96965.22;5087408;28;1650;-55
2021/08/16 00:18:53;;;;;;;;;;;;;;;27.51;43.56;96955.47;5088312;28;1279;-55
2021/08/16 00:21:18;;;;;;;;;;;;;;;27.46;43.63;96955.91;5088431;28;1214;-55
2021/08/16 00:23:43;;;;;;;;;;;;;;;27.60;43.21;96948.44;5089041;28;1127;-56
2021/08/16 00:26:08;;;;;;;;;;;;;;;27.43;43.68;96932.38;5087223;28;1642;-55
2021/08/16 00:28:33;;;;;;;;;;;;;;;27.51;43.72;96935.13;5086505;28;1670;-55
2021/08/16 00:30:59;;;;;;;;;;;;;;;27.39;43.77;96932.81;5089409;28;1140;-56
2021/08/16 00:33:24;;;;;;;;;;;;;;;27.50;43.66;96927.31;5088756;28;1905;-55
2021/08/16 00:35:49;;;;;;;;;;;;;;;27.45;43.82;96930.41;5089738;28;1140;-55
2021/08/16 00:38:14;;;;;;;;;;;;;;;27.48;43.69;96924.78;5087387;28;1618;-55
2021/08/16 00:40:40;;;;;;;;;;;;;;;27.44;43.82;96917.31;5089376;28;1230;-56
2021/08/16 00:43:05;;;;;;;;;;;;;;;27.49;43.78;96913.25;5088314;28;1512;-55
2021/08/16 00:45:30;;;;;;;;;;;;;;;27.43;43.96;96905.06;5088235;28;1281;-55
2021/08/16 00:47:56;;;;;;;;;;;;;;;27.48;43.61;96900.13;5078966;28;1264;-55
2021/08/16 00:50:21;;;;;;;;;;;;;;;27.46;43.77;96894.16;5087702;28;1567;-55
2021/08/16 00:52:46;;;;;;;;;;;;;;;27.47;43.59;96898.47;5088944;28;1976;-55
2021/08/16 00:55:11;;;;;;;;;;;;;;;27.38;43.81;96913.44;5088506;28;1166;-55
2021/08/16 00:57:37;;;;;;;;;;;;;;;27.47;43.94;96906.41;5087140;28;1587;-57
2021/08/16 01:00:05;;;;;;;;;;;;;;;27.48;43.59;96905.44;5082379;28;1320;-56
2021/08/16 01:02:31;;;;;;;;;;;;;;;27.48;43.92;96908.91;5081417;28;1610;-55
2021/08/16 01:04:56;;;;;;;;;;;;;;;27.51;43.66;96905.16;5086027;28;1116;-56
2021/08/16 01:07:21;;;;;;;;;;;;;;;27.55;43.48;96901.19;5087093;28;1377;-56
2021/08/16 01:09:46;;;;;;;;;;;;;;;27.45;43.71;96893.31;5086836;28;1571;-55
2021/08/16 01:12:12;;;;;;;;;;;;;;;27.52;43.85;96890.91;5086775;28;1918;-56
2021/08/16 01:14:37;;;;;;;;;;;;;;;27.42;43.79;96882.22;5079883;28;1192;-55
2021/08/16 01:17:02;;;;;;;;;;;;;;;27.61;43.67;96883.88;5080795;28;1513;-54
2021/08/16 01:19:27;;;;;;;;;;;;;;;27.47;43.63;96882.56;5092630;28;1136;-55
2021/08/16 01:21:52;;;;;;;;;;;;;;;27.46;43.65;96887.03;5086921;28;1911;-55
2021/08/16 01:24:18;;;;;;;;;;;;;;;27.43;43.86;96895.28;5093131;28;1175;-55
2021/08/16 01:26:43;;;;;;;;;;;;;;;27.40;44.07;96881.50;5092724;28;1354;-56
2021/08/16 01:29:17;;;;;;;;;;;;;;;27.51;43.76;96887.44;5091276;28;1834;-55
2021/08/16 01:31:43;;;;;;;;;;;;;;;27.47;43.63;96890.53;5093260;28;1085;-55
2021/08/16 01:34:08;;;;;;;;;;;;;;;27.53;43.62;96882.81;5092608;28;1969;-56
2021/08/16 01:36:33;;;;;;;;;;;;;;;27.43;43.98;96882.06;5092033;28;1598;-55
2021/08/16 01:38:58;;;;;;;;;;;;;;;27.53;43.70;96884.63;5092113;28;1286;-56
2021/08/16 01:41:24;;;;;;;;;;;;;;;27.47;43.77;96888.72;5093357;28;1231;-55
2021/08/16 01:43:49;;;;;;;;;;;;;;;27.53;43.35;96893.41;5089855;28;1627;-56
2021/08/16 01:46:14;;;;;;;;;;;;;;;27.59;43.50;96889.34;5092608;28;1230;-56
2021/08/16 01:48:39;;;;;;;;;;;;;;;27.55;43.61;96899.38;5091113;28;1326;-55
2021/08/16 01:51:07;;;;;;;;;;;;;;;27.43;44.09;96897.13;5092432;28;1202;-55
2021/08/16 01:53:32;;;;;;;;;;;;;;;27.53;43.64;96898.72;5090057;28;1956;-57
2021/08/16 01:55:57;;;;;;;;;;;;;;;27.48;43.73;96897.47;5091644;28;1259;-55
2021/08/16 01:58:22;;;;;;;;;;;;;;;27.53;43.48;96890.75;5090283;28;1535;-56
2021/08/16 02:00:47;;;;;;;;;;;;;;;27.48;43.70;96885.06;5090381;28;1650;-55
2021/08/16 02:03:13;;;;;;;;;;;;;;;27.57;43.54;96898.41;5091443;28;1436;-55
2021/08/16 02:05:38;;;;;;;;;;;;;;;27.54;43.67;96897.72;5087162;28;1594;-55
2021/08/16 02:08:03;;;;;;;;;;;;;;;27.46;43.59;96895.00;5080662;28;1412;-55
2021/08/16 02:10:29;;;;;;;;;;;;;;;27.51;43.44;96892.75;5091680;28;1159;-55
2021/08/16 02:12:54;;;;;;;;;;;;;;;27.51;43.90;96889.25;5110490;22;1897;-90
2021/08/16 02:15:19;;;;;;;;;;;;;;;27.53;43.48;96890.75;5060692;28;1234;-90
2021/08/16 02:17:44;;;;;;;;;;;;;;;27.45;43.92;96898.63;5071831;28;1147;-90
2021/08/16 02:20:10;;;;;;;;;;;;;;;27.47;43.76;96901.13;5069299;28;1528;-90
2021/08/16 02:22:35;;;;;;;;;;;;;;;27.53;43.67;96898.72;5060386;28;1737;-90
2021/08/16 02:25:00;;;;;;;;;;;;;;;27.52;43.68;96912.09;5063083;28;1099;-90
2021/08/16 02:27:25;;;;;;;;;;;;;;;27.41;44.08;96905.22;5069014;28;1608;-90
2021/08/16 02:29:51;;;;;;;;;;;;;;;27.44;43.88;96894.31;5059232;28;1411;-89
2021/08/16 02:32:16;;;;;;;;;;;;;;;27.44;44.07;96881.06;5079404;28;1965;-90
2021/08/16 02:34:41;;;;;;;;;;;;;;;27.48;43.84;96886.88;5044782;28;1401;-90
2021/08/16 02:37:06;;;;;;;;;;;;;;;27.45;43.89;96877.44;5069091;28;1509;-90
2021/08/16 02:39:31;;;;;;;;;;;;;;;27.45;43.98;96874.78;5072079;28;1232;-90
2021/08/16 02:41:57;;;;;;;;;;;;;;;27.50;43.69;96874.34;5058947;28;1552;-90
2021/08/16 02:44:22;;;;;;;;;;;;;;;27.46;43.72;96871.16;5070012;28;1189;-90
2021/08/16 02:46:50;;;;;;;;;;;;;;;27.54;43.61;96870.41;5071035;28;1465;-89
2021/08/16 02:49:16;;;;;;;;;;;;;;;27.55;43.63;96867.59;5065109;28;1746;-90
2021/08/16 02:51:41;;;;;;;;;;;;;;;27.44;43.59;96870.47;5060845;28;1234;-90
2021/08/16 02:54:09;;;;;;;;;;;;;;;27.50;43.65;96867.25;5060193;28;1910;-90
2021/08/16 02:56:34;;;;;;;;;;;;;;;27.55;43.74;96878.19;5071096;28;1010;-90
2021/08/16 02:58:59;;;;;;;;;;;;;;;27.53;43.50;96874.03;5058335;28;1526;-89
2021/08/16 03:01:25;;;;;;;;;;;;;;;27.41;44.02;96876.09;5071811;28;1163;-90
2021/08/16 03:03:50;;;;;;;;;;;;;;;27.51;43.75;96874.19;5070954;28;1211;-90
2021/08/16 03:06:15;;;;;;;;;;;;;;;27.52;43.75;96873.22;5061007;28;1610;-89
2021/08/16 03:08:40;;;;;;;;;;;;;;;27.49;43.73;96864.72;5060634;28;1264;-89
2021/08/16 03:11:05;;;;;;;;;;;;;;;27.46;43.83;96868.50;5071536;28;992;-89
2021/08/16 03:13:32;;;;;;;;;;;;;;;27.45;44.05;96882.72;5068913;28;1909;-90
2021/08/16 03:15:58;;;;;;;;;;;;;;;27.49;43.57;96873.53;5070775;28;1175;-89
2021/08/16 03:18:23;;;;;;;;;;;;;;;27.50;43.95;96871.72;5067904;28;1333;-89
2021/08/16 03:20:48;;;;;;;;;;;;;;;27.49;43.66;96876.16;5068968;28;1457;-90
2021/08/16 03:23:13;;;;;;;;;;;;;;;27.48;43.78;96874.47;5068643;28;1285;-89
2021/08/16 03:25:38;;;;;;;;;;;;;;;27.45;43.93;96874.78;5070486;28;1172;-90
2021/08/16 03:28:04;;;;;;;;;;;;;;;27.48;43.71;96866.53;5043323;28;1516;-90
2021/08/16 03:30:29;;;;;;;;;;;;;;;27.44;44.02;96859.06;5060323;28;1361;-90
2021/08/16 03:32:54;;;;;;;;;;;;;;;27.46;44.04;96862.38;5069710;28;1957;-90
2021/08/16 03:35:19;;;;;;;;;;;;;;;27.48;43.61;96863.88;5067909;28;1548;-89
2021/08/16 03:37:46;;;;;;;;;;;;;;;27.39;44.09;96859.50;5059200;28;1215;-89
2021/08/16 03:40:11;;;;;;;;;;;;;;;27.50;43.86;96854.00;5059870;28;1531;-89
2021/08/16 03:42:36;;;;;;;;;;;;;;;27.47;43.76;96854.28;5067943;28;1630;-89
2021/08/16 03:45:11;;;;;;;;;;;;;;;27.47;43.57;96856.09;5057717;28;1262;-90
2021/08/16 03:47:37;;;;;;;;;;;;;;;27.49;43.65;96851.47;5069537;28;1176;-89
2021/08/16 03:50:03;;;;;;;;;;;;;;;27.45;43.69;96861.56;5067859;28;1521;-90
2021/08/16 03:52:28;;;;;;;;;;;;;;;27.42;44.00;96867.16;5069862;28;1906;-89
2021/08/16 03:54:53;;;;;;;;;;;;;;;27.48;43.92;96857.75;5058622;28;1224;-90
2021/08/16 03:57:19;;;;;;;;;;;;;;;27.43;43.92;96855.56;5068716;28;1604;-89
2021/08/16 03:59:44;;;;;;;;;;;;;;;27.42;43.83;96856.56;5042423;28;1313;-89
2021/08/16 04:02:09;;;;;;;;;;;;;;;27.43;43.93;96855.56;5058977;28;1025;-89
2021/08/16 04:04:34;;;;;;;;;;;;;;;27.47;43.84;96858.75;5060120;28;1132;-89
2021/08/16 04:06:59;;;;;;;;;;;;;;;27.49;43.86;96857.63;5059076;28;1656;-90
2021/08/16 04:09:25;;;;;;;;;;;;;;;27.51;43.92;96868.06;5058922;28;1383;-89
2021/08/16 04:11:50;;;;;;;;;;;;;;;27.48;43.69;96866.53;5060378;28;1430;-89
2021/08/16 04:14:15;;;;;;;;;;;;;;;27.52;43.68;96865.25;5069092;28;1956;-90
2021/08/16 04:16:42;;;;;;;;;;;;;;;27.47;43.97;96869.34;5057922;28;1190;-89
2021/08/16 04:19:07;;;;;;;;;;;;;;;27.41;43.89;96873.44;5041265;28;1366;-89
2021/08/16 04:21:32;;;;;;;;;;;;;;;27.47;44.05;96866.69;5067317;28;1576;-89
2021/08/16 04:23:58;;;;;;;;;;;;;;;27.47;44.06;96862.22;5069121;28;1116;-90
2021/08/16 04:26:23;;;;;;;;;;;;;;;27.46;43.97;96871.16;5069997;28;1246;-90
2021/08/16 04:28:48;;;;;;;;;;;;;;;27.47;43.60;96867.53;5059571;28;1613;-89
2021/08/16 04:31:13;;;;;;;;;;;;;;;27.45;43.69;96858.06;5070185;28;1108;-90
2021/08/16 04:33:38;;;;;;;;;;;;;;;27.47;43.80;96864.03;5068994;28;1971;-89
2021/08/16 04:36:04;;;;;;;;;;;;;;;27.49;43.84;96857.63;5056878;28;1584;-89
2021/08/16 04:38:29;;;;;;;;;;;;;;;27.51;43.70;96860.97;5068935;28;1167;-89
2021/08/16 04:40:54;;;;;;;;;;;;;;;27.37;43.97;96866.75;5068995;28;1337;-90
2021/08/16 04:43:19;;;;;;;;;;;;;;;27.41;43.95;96868.13;5067563;28;1766;-89
2021/08/16 04:45:45;;;;;;;;;;;;;;;27.51;43.63;96866.25;5058305;28;1238;-90
2021/08/16 04:48:10;;;;;;;;;;;;;;;27.47;43.60;96845.50;5067982;28;1186;-90
2021/08/16 04:50:35;;;;;;;;;;;;;;;27.52;43.70;96836.13;5069859;28;1267;-90
2021/08/16 04:53:00;;;;;;;;;;;;;;;27.52;43.71;96841.44;5063024;28;1905;-89
2021/08/16 04:55:25;;;;;;;;;;;;;;;27.50;43.78;96837.28;5069033;28;1183;-90
2021/08/16 04:57:50;;;;;;;;;;;;;;;27.35;43.98;96844.91;5057276;28;1639;-89
2021/08/16 05:00:16;;;;;;;;;;;;;;;27.40;44.10;96839.97;5043257;28;1356;-89
2021/08/16 05:02:41;;;;;;;;;;;;;;;27.46;44.08;96835.91;5058513;28;1244;-89
2021/08/16 05:05:14;;;;;;;;;;;;;;;27.40;43.90;96837.31;5059245;28;1420;-89
2021/08/16 05:08:06;;;;;;;;;;;;;;;27.44;43.80;96832.56;5057587;28;1507;-89
2021/08/16 05:10:31;;;;;;;;;;;;;;;27.38;44.01;96826.06;5055834;28;1276;-89
2021/08/16 05:12:57;;;;;;;;;;;;;;;27.39;43.85;96840.13;5057092;28;1905;-89
2021/08/16 05:15:23;;;;;;;;;;;;;;;27.38;44.02;96847.25;5056045;28;1510;-89
2021/08/16 05:17:48;;;;;;;;;;;;;;;27.43;43.75;96870.63;5059361;28;1247;-89
2021/08/16 05:20:13;;;;;;;;;;;;;;;27.41;43.95;96881.38;5057972;28;1221;-89
2021/08/16 05:22:39;;;;;;;;;;;;;;;27.46;44.04;96892.34;5061052;28;1294;-90
2021/08/16 05:25:05;;;;;;;;;;;;;;;27.38;44.07;96897.53;5057614;28;1624;-89
2021/08/16 05:27:30;;;;;;;;;;;;;;;27.44;44.20;96898.78;5066619;28;1579;-90
2021/08/16 05:29:55;;;;;;;;;;;;;;;27.49;43.85;96894.72;5059719;28;1359;-89
2021/08/16 05:32:20;;;;;;;;;;;;;;;27.46;44.12;96884.41;5069274;28;1910;-89
2021/08/16 05:34:46;;;;;;;;;;;;;;;27.43;44.15;96878.56;5067797;28;1606;-89
2021/08/16 05:37:11;;;;;;;;;;;;;;;27.46;44.08;96895.00;5067505;28;1354;-89
2021/08/16 05:39:36;;;;;;;;;;;;;;;27.34;44.14;96904.13;5068023;28;1353;-90
2021/08/16 05:42:02;;;;;;;;;;;;;;;27.46;43.88;96899.47;5056542;28;1509;-89
2021/08/16 05:44:27;;;;;;;;;;;;;;;27.50;43.79;96900.84;5068801;28;1270;-90
2021/08/16 05:46:52;;;;;;;;;;;;;;;27.47;44.02;96904.59;5057486;28;1168;-89
2021/08/16 05:49:18;;;;;;;;;;;;;;;27.44;43.86;96906.72;5067714;28;1350;-89
2021/08/16 05:51:43;;;;;;;;;;;;;;;27.44;43.78;96910.19;5042102;28;1676;-89
2021/08/16 05:54:08;;;;;;;;;;;;;;;27.58;43.46;96908.03;5067036;28;1969;-89
2021/08/16 05:56:33;;;;;;;;;;;;;;;27.50;43.64;96903.50;5069517;28;1139;-89
2021/08/16 05:58:58;;;;;;;;;;;;;;;27.47;43.66;96901.13;5054544;28;1775;-90
2021/08/16 06:01:24;;;;;;;;;;;;;;;27.48;44.03;96911.56;5061639;28;1320;-89
2021/08/16 06:03:49;;;;;;;;;;;;;;;27.45;43.79;96913.69;5071929;28;1171;-89
2021/08/16 06:06:14;;;;;;;;;;;;;;;27.44;44.17;96919.97;5043250;28;1531;-90
2021/08/16 06:08:39;;;;;;;;;;;;;;;27.44;43.80;96927.91;5070789;28;1627;-90
2021/08/16 06:11:04;;;;;;;;;;;;;;;27.51;43.83;96919.22;5068320;28;1627;-89
2021/08/16 06:13:30;;;;;;;;;;;;;;;27.44;43.95;96925.25;5043529;28;1904;-90
2021/08/16 06:15:55;;;;;;;;;;;;;;;27.43;43.96;96920.94;5068020;28;1420;-89
2021/08/16 06:18:20;;;;;;;;;;;;;;;27.49;43.88;96920.34;5057708;28;1940;-90
2021/08/16 06:20:45;;;;;;;;;;;;;;;27.54;43.80;96921.56;5060016;28;1271;-90
2021/08/16 06:23:11;;;;;;;;;;;;;;;27.57;43.82;96915.16;5067173;28;1592;-90
2021/08/16 06:25:36;;;;;;;;;;;;;;;27.57;43.63;96919.59;5043052;28;1148;-90
2021/08/16 06:28:01;;;;;;;;;;;;;;;27.64;43.32;96918.84;5067895;28;1587;-90
2021/08/16 06:30:26;;;;;;;;;;;;;;;27.49;43.64;96931.78;5072160;28;1342;-91
2021/08/16 06:32:52;;;;;;;;;;;;;;;27.60;43.48;96933.38;5071264;28;1969;-91
2021/08/16 06:35:18;;;;;;;;;;;;;;;27.60;43.71;96924.59;5061293;28;1623;-90
2021/08/16 06:37:45;;;;;;;;;;;;;;;27.57;43.73;96914.28;5071418;28;1210;-91
2021/08/16 06:40:10;;;;;;;;;;;;;;;27.62;43.24;96917.34;5058404;28;1538;-91
2021/08/16 06:42:36;;;;;;;;;;;;;;;27.48;43.95;96927.44;5067799;28;1583;-91
2021/08/16 06:45:01;;;;;;;;;;;;;;;27.57;43.76;96943.44;5068213;28;1284;-91
2021/08/16 06:47:26;;;;;;;;;;;;;;;27.44;43.89;96944.63;5070813;28;1210;-91
2021/08/16 06:49:51;;;;;;;;;;;;;;;27.41;44.07;96939.63;5056523;28;1552;-91
2021/08/16 06:52:17;;;;;;;;;;;;;;;27.42;44.10;96938.66;5066969;28;1955;-90
2021/08/16 06:54:42;;;;;;;;;;;;;;;27.48;43.80;96932.75;5044077;28;1182;-91
2021/08/16 06:57:07;;;;;;;;;;;;;;;27.38;44.18;96942.56;5056678;28;1564;-91
2021/08/16 06:59:32;;;;;;;;;;;;;;;27.44;43.86;96935.84;5069729;28;1354;-91
2021/08/16 07:01:58;;;;;;;;;;;;;;;27.51;43.89;96936.94;5061676;28;1351;-91
2021/08/16 07:04:24;;;;;;;;;;;;;;;27.40;44.22;96939.75;5042591;28;1480;-91
2021/08/16 07:06:49;;;;;;;;;;;;;;;27.42;44.16;96946.59;5058031;28;1362;-91
2021/08/16 07:09:14;;;;;;;;;;;;;;;27.51;43.82;96937.75;5070474;28;1334;-91
2021/08/16 07:11:39;;;;;;;;;;;;;;;27.46;43.78;96931.22;5069261;28;1584;-91
2021/08/16 07:14:04;;;;;;;;;;;;;;;27.48;43.84;96930.09;5057709;28;1901;-91
2021/08/16 07:16:30;;;;;;;;;;;;;;;27.48;44.02;96940.69;5070521;28;1177;-91
2021/08/16 07:18:55;;;;;;;;;;;;;;;27.42;44.02;96937.81;5070693;28;1355;-93
2021/08/16 07:21:20;;;;;;;;;;;;;;;27.44;44.24;96949.09;5069118;28;1587;-93
2021/08/16 07:23:45;;;;;;;;;;;;;;;27.48;43.97;96945.97;5048622;28;1306;-93
2021/08/16 07:26:10;;;;;;;;;;;;;;;27.46;43.66;96941.81;5069706;28;1388;-91
2021/08/16 07:28:36;;;;;;;;;;;;;;;27.40;44.25;96945.06;5065265;28;1489;-93
2021/08/16 07:31:01;;;;;;;;;;;;;;;27.43;43.93;96942.13;5056383;28;1029;-93
2021/08/16 07:33:28;;;;;;;;;;;;;;;27.53;43.67;96941.09;5056087;28;1913;-93
2021/08/16 07:35:53;;;;;;;;;;;;;;;27.43;43.96;96953.56;5068427;28;1615;-91
2021/08/16 07:38:18;;;;;;;;;;;;;;;27.93;43.07;96939.06;5071265;28;1132;-89
2021/08/16 07:40:44;;;;;;;;;;;;;;;27.89;43.17;96943.00;5033643;28;1505;-88
2021/08/16 07:43:09;;;;;;;;;;;;;;;28.03;42.57;96938.00;5066115;28;1688;-89
2021/08/16 07:45:34;;;;;;;;;;;;;;;28.21;42.49;96934.53;5069439;28;1163;-89
2021/08/16 07:47:59;;;;;;;;;;;;;;;28.23;42.44;96935.19;5055653;28;1330;-88
2021/08/16 07:50:25;;;;;;;;;;;;;;;28.18;42.71;96934.81;5057172;28;1293;-89
2021/08/16 07:52:51;;;;;;;;;;;;;;;27.63;44.13;96937.53;5055350;22;3610;-57
2021/08/16 07:55:16;;;;;;;;;;;;;;;28.47;42.31;96940.72;5047679;28;997;-57
2021/08/16 07:57:41;;;;;;;;;;;;;;;28.40;42.45;96933.53;5031201;28;1670;-55
2021/08/16 08:00:08;;;;;;;;;;;;;;;28.59;41.99;96939.47;5030475;28;1765;-55
2021/08/16 08:02:46;;;;;;;;;;;;;;;28.89;41.50;96948.81;5043041;28;1654;-55
2021/08/16 08:05:12;;;;;;;;;;;;;;;29.42;40.21;96939.00;5040603;28;1579;-55
2021/08/16 08:07:37;;;;;;;;;;;;;;;29.86;39.33;96938.81;5040951;28;1653;-56
2021/08/16 08:10:03;;;;;;;;;;;;;;;28.69;41.97;96957.97;5043131;28;2016;-56
2021/08/16 08:12:28;;;;;;;;;;;;;;;28.81;41.57;96950.56;5047036;28;1975;-56
2021/08/16 08:14:53;;;;;;;;;;;;;;;29.92;39.43;96944.31;5048979;28;1144;-56
2021/08/16 08:17:20;;;;;;;;;;;;;;;29.30;40.30;96942.91;5049207;28;1145;-56
2021/08/16 08:19:45;;;;;;;;;;;;;;;29.69;39.49;96946.75;5041454;28;1665;-57
2021/08/16 08:22:10;;;;;;;;;;;;;;;29.27;40.63;96948.53;5046641;28;1672;-52
2021/08/16 08:24:35;;;;;;;;;;;;;;;29.16;40.76;96952.31;5046110;28;1803;-55
2021/08/16 08:27:01;;;;;;;;;;;;;;;29.26;40.50;96949.53;5045902;28;1498;-57
2021/08/16 08:29:26;;;;;;;;;;;;;;;29.29;40.28;96959.84;5043119;28;1274;-56
2021/08/16 08:31:51;;;;;;;;;;;;;;;29.43;40.17;96960.06;5040817;28;1610;-56
2021/08/16 08:34:16;;;;;;;;;;;;;;;29.37;40.14;96950.09;5042754;28;1918;-56
2021/08/16 08:36:44;;;;;;;;;;;;;;;29.54;39.97;96953.66;5048846;28;1204;-56
2021/08/16 08:39:09;;;;;;;;;;;;;;;29.69;39.84;96952.06;5048973;28;1060;-56
2021/08/16 08:41:34;;;;;;;;;;;;;;;29.38;40.45;96966.84;5047857;28;1629;-56
2021/08/16 08:43:59;;;;;;;;;;;;;;;29.48;40.19;96964.91;5048038;28;1623;-56
2021/08/16 08:46:25;;;;;;;;;;;;;;;30.00;39.02;96962.09;5048391;28;1172;-56
2021/08/16 08:48:50;;;;;;;;;;;;;;;30.17;38.60;96966.47;5048002;28;1149;-57
2021/08/16 08:51:15;;;;;;;;;;;;;;;29.80;39.65;96966.06;5047829;28;1652;-56
2021/08/16 08:53:40;;;;;;;;;;;;;;;30.00;39.01;96970.91;5026925;28;1985;-56
2021/08/16 08:56:06;;;;;;;;;;;;;;;29.72;39.71;96980.16;5046688;28;997;-55
2021/08/16 08:58:31;;;;;;;;;;;;;;;29.85;39.41;96985.00;5047746;28;1653;-57
2021/08/16 09:00:56;;;;;;;;;;;;;;;29.95;39.33;96978.56;5048675;28;1299;-56
2021/08/16 09:03:21;;;;;;;;;;;;;;;29.83;39.48;96987.00;5052605;23;3624;-56
2021/08/16 09:05:51;;;;;;;;;;;;;;;30.05;38.85;96991.69;5032453;28;1180;-58
2021/08/16 09:08:21;;;;;;;;;;;;;;;30.12;39.00;96991.91;5033670;28;1244;-58
2021/08/16 09:10:47;;;;;;;;;;;;;;;29.65;39.63;96993.25;5027285;28;1611;-57
2021/08/16 09:13:22;;;;;;;;;;;;;;;29.80;39.71;96998.78;5031131;28;1902;-58
2021/08/16 09:15:47;;;;;;;;;;;;;;;29.81;39.65;97003.09;5033724;28;1154;-54
2021/08/16 09:18:12;;;;;;;;;;;;;;;29.68;39.97;97014.19;5031424;28;1567;-53
2021/08/16 09:20:37;;;;;;;;;;;;;;;29.73;39.49;97017.19;5035908;28;1098;-56
2021/08/16 09:23:04;;;;;;;;;;;;;;;29.91;39.20;97014.44;5032956;28;1599;-57
2021/08/16 09:25:35;;;;;;;;;;;;;;;29.98;39.11;97017.28;5037402;28;1180;-56
2021/08/16 09:28:01;;;;;;;;;;;;;;;29.87;39.37;97012.28;5009443;28;1616;-56
2021/08/16 09:30:33;;;;;;;;;;;;;;;29.57;39.97;97001.19;5033121;28;1140;-56
2021/08/16 09:32:58;;;;;;;;;;;;;;;29.99;39.08;96995.84;5033500;28;1962;-55
2021/08/16 09:35:23;;;;;;;;;;;;;;;30.03;38.93;96983.91;5035612;28;1595;-55
2021/08/16 09:37:57;;;;;;;;;;;;;;;29.86;39.44;96989.31;5037778;28;1192;-55
2021/08/16 09:40:23;;;;;;;;;;;;;;;29.78;39.69;96976.81;5036011;28;1638;-56
2021/08/16 09:42:49;;;;;;;;;;;;;;;29.89;39.46;96986.34;5013526;28;1550;-55
2021/08/16 09:45:27;;;;;;;;;;;;;;;30.01;39.17;96977.06;5031349;28;1557;-56
2021/08/16 09:47:56;;;;;;;;;;;;;;;30.18;38.75;96975.31;5034315;28;1834;-56
2021/08/16 09:50:21;;;;;;;;;;;;;;;29.92;39.51;96972.72;5032318;28;1559;-57
2021/08/16 09:52:46;;;;;;;;;;;;;;;29.91;39.28;96971.88;5036627;28;1969;-57
2021/08/16 09:55:12;;;;;;;;;;;;;;;29.95;39.50;96964.44;5020145;28;1239;-56
2021/08/16 09:57:37;;;;;;;;;;;;;;;29.96;39.31;96955.47;5029885;28;1709;-57
2021/08/16 10:00:05;;;;;;;;;;;;;;;30.09;39.27;96958.50;5017590;28;1243;-52
2021/08/16 10:02:31;;;;;;;;;;;;;;;29.55;40.03;96960.66;5031931;28;1401;-56
2021/08/16 10:04:57;;;;;;;;;;;;;;;29.55;40.29;96963.31;5011586;28;1608;-57
2021/08/16 10:07:23;;;;;;;;;;;;;;;29.88;39.82;96961.59;5028480;28;1536;-53
2021/08/16 10:09:49;;;;;;;;;;;;;;;30.07;38.97;96965.78;5029541;28;1015;-57
2021/08/16 10:12:14;;;;;;;;;;;;;;;29.63;40.24;96957.22;5011338;28;1615;-57
2021/08/16 10:14:39;;;;;;;;;;;;;;;30.08;39.19;96964.81;5013125;28;2236;-57
2021/08/16 10:17:05;;;;;;;;;;;;;;;30.06;39.37;96963.28;5012396;28;1566;-57
2021/08/16 10:19:31;;;;;;;;;;;;;;;30.03;39.24;96965.28;5013091;28;1587;-53
2021/08/16 10:21:56;;;;;;;;;;;;;;;30.06;39.16;96964.09;5009273;28;1627;-52
2021/08/16 10:24:26;;;;;;;;;;;;;;;30.12;38.94;96962.66;5029241;28;1638;-57
2021/08/16 10:27:04;;;;;;;;;;;;;;;29.13;41.04;96976.53;5030655;28;1511;-54
2021/08/16 10:29:30;;;;;;;;;;;;;;;29.02;41.27;96976.78;5031318;28;1233;-57
2021/08/16 10:31:56;;;;;;;;;;;;;;;29.37;40.65;96976.63;4977241;28;1284;-57
2021/08/16 10:34:34;;;;;;;;;;;;;;;29.96;39.34;96976.72;5030215;28;1906;-57
2021/08/16 10:37:05;;;;;;;;;;;;;;;29.99;39.40;96974.56;5028642;28;1543;-56
2021/08/16 10:39:34;;;;;;;;;;;;;;;30.09;39.10;96977.09;5030781;28;1832;-57
2021/08/16 10:42:06;;;;;;;;;;;;;;;30.05;39.17;96969.59;5029064;28;1548;-57
2021/08/16 10:44:37;;;;;;;;;;;;;;;29.54;39.92;96964.28;5031614;28;1287;-57
2021/08/16 10:47:03;;;;;;;;;;;;;;;29.71;39.83;96965.19;5029806;28;1280;-56
2021/08/16 10:49:32;;;;;;;;;;;;;;;29.90;39.71;96962.25;5031115;28;1141;-56
2021/08/16 10:51:57;;;;;;;;;;;;;;;29.98;39.47;96950.81;5011066;28;1556;-57
2021/08/16 10:54:23;;;;;;;;;;;;;;;30.06;39.16;96953.47;5012753;28;1973;-57
2021/08/16 10:56:48;;;;;;;;;;;;;;;29.40;40.73;96954.25;5029976;28;1168;-56
2021/08/16 10:59:13;;;;;;;;;;;;;;;29.62;40.19;96955.50;5029480;28;1844;-56
2021/08/16 11:01:39;;;;;;;;;;;;;;;29.91;39.62;96963.91;5012691;28;1341;-56
2021/08/16 11:04:04;;;;;;;;;;;;;;;29.98;39.20;96945.47;5030537;28;1188;-56
2021/08/16 11:06:30;;;;;;;;;;;;;;;29.83;39.83;96952.44;5029586;28;1615;-57
2021/08/16 11:08:58;;;;;;;;;;;;;;;30.10;39.30;96951.34;5030607;28;1121;-57
2021/08/16 11:11:23;;;;;;;;;;;;;;;30.12;39.10;96955.53;5030741;28;1200;-57
2021/08/16 11:13:48;;;;;;;;;;;;;;;29.98;39.25;96954.28;5029916;28;1918;-57
2021/08/16 11:16:13;;;;;;;;;;;;;;;30.04;39.36;96958.13;5012491;28;1553;-56
2021/08/16 11:18:39;;;;;;;;;;;;;;;30.06;39.19;96950.00;5031379;28;1197;-56
2021/08/16 11:21:07;;;;;;;;;;;;;;;30.05;39.12;96945.66;5012396;28;1565;-57
2021/08/16 11:23:32;;;;;;;;;;;;;;;30.04;39.30;96950.16;5030509;28;1291;-56
2021/08/16 11:25:58;;;;;;;;;;;;;;;30.00;39.01;96920.38;5030060;28;1343;-57
2021/08/16 11:28:23;;;;;;;;;;;;;;;29.94;39.37;96937.03;5028263;28;1646;-57
2021/08/16 11:30:49;;;;;;;;;;;;;;;30.05;39.23;96935.84;5028118;28;1221;-57
2021/08/16 11:33:24;;;;;;;;;;;;;;;29.92;39.51;96925.69;5028301;28;1961;-55
2021/08/16 11:35:49;;;;;;;;;;;;;;;29.95;39.38;96935.19;5027698;28;1102;-56
2021/08/16 11:38:15;;;;;;;;;;;;;;;30.01;39.15;96919.38;5007114;28;1707;-57
2021/08/16 11:40:40;;;;;;;;;;;;;;;29.97;39.47;96933.19;5028799;28;1145;-57
2021/08/16 11:43:05;;;;;;;;;;;;;;;30.04;39.33;96920.91;5025936;28;1591;-56
2021/08/16 11:45:34;;;;;;;;;;;;;;;29.98;39.51;96911.75;5024818;28;1558;-56
2021/08/16 11:47:59;;;;;;;;;;;;;;;29.95;39.30;96906.78;5029583;28;1203;-56
2021/08/16 11:50:25;;;;;;;;;;;;;;;30.02;39.36;96902.47;5029904;28;1342;-60
2021/08/16 11:52:51;;;;;;;;;;;;;;;29.97;39.33;96896.78;5030176;28;1902;-56
2021/08/16 11:55:23;;;;;;;;;;;;;;;30.00;39.40;96896.47;5028785;28;1547;-57
2021/08/16 11:57:51;;;;;;;;;;;;;;;29.91;39.49;96891.31;5028217;28;1548;-57
2021/08/16 12:00:16;;;;;;;;;;;;;;;30.02;39.30;96891.00;5029630;28;1267;-57
2021/08/16 12:02:41;;;;;;;;;;;;;;;30.09;39.00;96899.16;5029320;28;1393;-57
2021/08/16 12:05:07;;;;;;;;;;;;;;;29.98;39.41;96894.97;5011090;28;1607;-56
2021/08/16 12:07:32;;;;;;;;;;;;;;;29.89;39.37;96898.63;5028428;28;1735;-56
2021/08/16 12:09:57;;;;;;;;;;;;;;;29.97;39.22;96898.63;5012041;28;1106;-56
2021/08/16 12:12:23;;;;;;;;;;;;;;;30.07;39.23;96901.94;5027646;28;1559;-57
2021/08/16 12:14:58;;;;;;;;;;;;;;;29.92;39.31;96906.25;5029682;28;1953;-57
2021/08/16 12:17:24;;;;;;;;;;;;;;;29.94;39.42;96915.75;5026761;28;1567;-57
2021/08/16 12:19:58;;;;;;;;;;;;;;;29.91;39.57;96917.88;5030120;28;1212;-57
2021/08/16 12:22:23;;;;;;;;;;;;;;;30.04;39.13;96910.28;5028824;28;1479;-57
2021/08/16 12:24:48;;;;;;;;;;;;;;;30.02;39.18;96913.09;5029114;28;1607;-56
2021/08/16 12:27:15;;;;;;;;;;;;;;;29.87;39.53;96908.59;5009886;28;1658;-57
2021/08/16 12:29:43;;;;;;;;;;;;;;;29.91;39.74;96916.06;5029475;28;1201;-57
2021/08/16 12:32:18;;;;;;;;;;;;;;;29.91;39.38;96923.22;5029085;28;1362;-56
2021/08/16 12:34:44;;;;;;;;;;;;;;;29.91;39.45;96917.88;5028898;28;1883;-56
2021/08/16 12:37:20;;;;;;;;;;;;;;;29.92;39.37;96904.44;5027938;28;1618;-57
2021/08/16 12:39:45;;;;;;;;;;;;;;;29.91;39.32;96925.88;5028804;28;1133;-56
2021/08/16 12:42:10;;;;;;;;;;;;;;;30.02;39.21;96926.41;5027365;28;1650;-56
2021/08/16 12:44:36;;;;;;;;;;;;;;;29.94;39.43;96938.81;5028968;28;1447;-57
2021/08/16 12:47:05;;;;;;;;;;;;;;;29.99;39.42;96936.50;5008141;28;1486;-53
2021/08/16 12:49:30;;;;;;;;;;;;;;;29.96;39.35;96931.53;5007477;28;1366;-57
2021/08/16 12:51:56;;;;;;;;;;;;;;;29.66;39.87;96931.13;5028307;28;1389;-56